Time;durP1;ratioP1;P1;durP2;ratioP2;P2;SDS_P1;SDS_P2;PMS_P1;PMS_P2;Temp;Humidity;BMP_temperature;BMP_pressure;BME280_temperature;BME280_humidity;BME280_pressure;Samples;Min_cycle;Max_cycle;Signal;HPM_P1;HPM_P2
2022/01/11 00:00:36;;;;;;;16.90;16.10;;;9.90;84.00;;;;;;5070705;28;20047;-80
2022/01/11 00:03:04;;;;;;;17.25;16.45;;;9.90;83.90;;;;;;5053974;28;20032;-80
2022/01/11 00:08:28;;;;;;;18.35;17.35;;;10.00;83.90;;;;;;5029733;28;20270;-80
2022/01/11 00:11:02;;;;;;;17.25;16.35;;;9.90;83.90;;;;;;5015255;28;20046;-80
2022/01/11 00:13:29;;;;;;;17.98;17.10;;;9.90;83.90;;;;;;5024896;28;20034;-80
2022/01/11 00:15:55;;;;;;;17.77;16.88;;;9.90;83.80;;;;;;5027822;28;20033;-80
2022/01/11 00:18:21;;;;;;;17.73;16.83;;;10.00;83.90;;;;;;5030140;28;20394;-80
2022/01/11 00:20:47;;;;;;;17.67;16.88;;;9.90;83.90;;;;;;5030505;28;20037;-80
2022/01/11 00:25:41;;;;;;;17.58;16.45;;;9.80;84.70;;;;;;5045942;28;20064;-80
2022/01/11 00:28:08;;;;;;;17.80;16.90;;;9.80;83.90;;;;;;4996846;28;20489;-80
2022/01/11 00:30:37;;;;;;;19.60;18.42;;;9.80;84.00;;;;;;5038743;28;20041;-80
2022/01/11 00:33:06;;;;;;;16.92;16.13;;;9.70;84.00;;;;;;5013759;28;20037;-80
2022/01/11 00:35:41;;;;;;;17.02;16.15;;;9.70;84.10;;;;;;5043415;28;20042;-80
2022/01/11 00:38:09;;;;;;;17.98;16.88;;;9.70;84.10;;;;;;5014162;28;20049;-80
2022/01/11 00:40:35;;;;;;;17.77;16.88;;;9.70;84.10;;;;;;5030266;28;20037;-81
2022/01/11 00:43:02;;;;;;;18.33;17.35;;;9.70;84.00;;;;;;5033299;28;20041;-80
2022/01/11 00:45:28;;;;;;;16.45;15.65;;;9.70;84.10;;;;;;5033502;28;20051;-80
2022/01/11 00:47:54;;;;;;;19.05;17.50;;;9.60;84.10;;;;;;5052663;28;20032;-80
2022/01/11 00:50:20;;;;;;;16.80;16.00;;;9.60;84.10;;;;;;5052916;28;20470;-80
2022/01/11 00:52:47;;;;;;;18.15;16.90;;;9.60;84.20;;;;;;5070896;28;20036;-80
2022/01/11 00:55:13;;;;;;;17.55;16.75;;;9.60;84.30;;;;;;5086136;28;20504;-80
2022/01/11 00:57:39;;;;;;;17.73;16.83;;;9.60;84.30;;;;;;5085757;28;20037;-80
2022/01/11 01:00:08;;;;;;;17.73;16.83;;;9.60;84.20;;;;;;5102533;28;20516;-80
2022/01/11 01:02:34;;;;;;;17.95;16.85;;;9.60;84.30;;;;;;5067835;28;20025;-80
2022/01/11 01:05:01;;;;;;;18.35;17.45;;;9.60;84.10;;;;;;5053472;28;20028;-80
2022/01/11 01:07:27;;;;;;;18.15;17.25;;;9.60;84.20;;;;;;5085202;28;20480;-80
2022/01/11 01:10:06;;;;;;;17.20;16.40;;;9.60;84.10;;;;;;5066601;28;20041;-80
2022/01/11 01:12:33;;;;;;;17.20;16.30;;;9.70;84.30;;;;;;5083457;28;20048;-80
2022/01/11 01:15:00;;;;;;;17.67;16.88;;;9.60;84.10;;;;;;5085539;28;20025;-80
2022/01/11 01:17:26;;;;;;;18.23;17.38;;;9.70;84.30;;;;;;5049320;28;20049;-80
2022/01/11 01:19:53;;;;;;;19.10;18.15;;;9.70;84.20;;;;;;5049942;28;20040;-80
2022/01/11 01:22:19;;;;;;;17.42;16.63;;;9.70;84.30;;;;;;5066271;28;20048;-80
2022/01/11 01:24:46;;;;;;;19.85;18.75;;;9.70;84.20;;;;;;5080735;28;20029;-80
2022/01/11 01:27:12;;;;;;;17.90;16.90;;;9.70;84.20;;;;;;5050002;28;20025;-80
2022/01/11 01:29:40;;;;;;;18.23;17.33;;;9.70;84.10;;;;;;5050393;28;20021;-80
2022/01/11 01:32:10;;;;;;;18.30;17.30;;;9.70;84.10;;;;;;5066837;28;20063;-80
2022/01/11 01:34:36;;;;;;;20.10;18.88;;;9.70;84.10;;;;;;5104228;28;20029;-80
2022/01/11 01:37:03;;;;;;;17.65;16.83;;;9.70;84.10;;;;;;5102307;28;20032;-80
2022/01/11 01:39:29;;;;;;;17.55;16.75;;;9.70;84.10;;;;;;5085189;28;20036;-80
2022/01/11 01:41:55;;;;;;;17.05;16.15;;;9.60;84.10;;;;;;5083487;28;20024;-80
2022/01/11 01:44:21;;;;;;;16.95;16.15;;;9.60;84.10;;;;;;5067247;28;20060;-80
2022/01/11 01:46:47;;;;;;;19.58;18.48;;;9.60;84.10;;;;;;5069678;28;20029;-80
2022/01/11 01:49:19;;;;;;;16.67;15.88;;;9.50;84.90;;;;;;5068220;28;20524;-80
2022/01/11 01:51:45;;;;;;;17.00;16.20;;;9.50;84.20;;;;;;5068788;28;20041;-80
2022/01/11 01:54:12;;;;;;;18.90;17.83;;;9.50;84.20;;;;;;5051962;28;20032;-80
2022/01/11 01:56:38;;;;;;;17.35;16.50;;;9.50;84.30;;;;;;5069912;28;20025;-80
2022/01/11 01:59:04;;;;;;;17.38;16.52;;;9.50;84.30;;;;;;5068616;28;20083;-80
2022/01/11 02:01:38;;;;;;;17.17;16.38;;;9.50;84.20;;;;;;5103693;28;20039;-80
2022/01/11 02:04:04;;;;;;;16.92;16.02;;;9.50;84.30;;;;;;5069349;28;20036;-80
2022/01/11 02:06:30;;;;;;;17.20;16.25;;;9.50;84.30;;;;;;5051719;28;20035;-80
2022/01/11 02:08:56;;;;;;;17.77;16.77;;;9.50;84.30;;;;;;5069453;28;20470;-80
2022/01/11 02:11:23;;;;;;;18.40;16.73;;;9.50;84.30;;;;;;5034030;28;20060;-80
2022/01/11 02:13:49;;;;;;;16.83;16.02;;;9.40;84.30;;;;;;5070985;28;20029;-80
2022/01/11 02:16:17;;;;;;;19.25;17.77;;;9.40;84.30;;;;;;5102038;28;20412;-80
2022/01/11 02:18:46;;;;;;;17.13;16.33;;;9.40;84.30;;;;;;5101644;28;20032;-80
2022/01/11 02:21:12;;;;;;;16.50;15.70;;;9.50;84.30;;;;;;5067818;28;20020;-80
2022/01/11 02:23:38;;;;;;;17.80;16.90;;;9.40;84.30;;;;;;5050043;28;20036;-80
2022/01/11 02:26:04;;;;;;;17.70;16.70;;;9.40;84.30;;;;;;5068500;28;20025;-80
2022/01/11 02:28:30;;;;;;;18.05;17.05;;;9.40;84.30;;;;;;5071435;28;20017;-80
2022/01/11 02:30:57;;;;;;;16.98;16.17;;;9.40;84.30;;;;;;5051541;28;20548;-80
2022/01/11 02:33:35;;;;;;;16.40;15.60;;;9.40;84.40;;;;;;5039565;28;20041;-80
2022/01/11 02:36:30;;;;;;;17.17;16.38;;;9.40;84.30;;;;;;5055468;28;20036;-80
2022/01/11 02:38:56;;;;;;;16.60;15.80;;;9.30;84.30;;;;;;5069429;28;20048;-80
2022/01/11 02:41:24;;;;;;;18.23;17.23;;;9.30;84.40;;;;;;5068043;28;20024;-80
2022/01/11 02:43:50;;;;;;;16.88;16.08;;;9.30;84.40;;;;;;5072843;28;20029;-80
2022/01/11 02:46:19;;;;;;;16.95;16.15;;;9.30;84.30;;;;;;5072767;28;20029;-80
2022/01/11 02:48:46;;;;;;;16.85;16.05;;;9.30;84.40;;;;;;5071434;28;20516;-80
2022/01/11 02:51:12;;;;;;;17.17;16.38;;;9.20;84.40;;;;;;5054847;28;20033;-80
2022/01/11 02:53:43;;;;;;;16.95;15.95;;;9.20;84.40;;;;;;5071502;28;20362;-80
2022/01/11 02:56:09;;;;;;;17.00;16.20;;;9.20;84.50;;;;;;5071569;28;20466;-80
2022/01/11 02:58:35;;;;;;;18.10;17.10;;;9.20;84.50;;;;;;5069585;28;20059;-80
2022/01/11 03:01:01;;;;;;;17.48;16.65;;;9.20;84.50;;;;;;5068424;28;20048;-80
2022/01/11 03:03:27;;;;;;;16.48;15.57;;;9.10;84.40;;;;;;5064866;28;20021;-80
2022/01/11 03:05:55;;;;;;;17.48;16.58;;;9.10;84.50;;;;;;5062381;28;20040;-80
2022/01/11 03:08:22;;;;;;;16.85;16.05;;;9.10;84.60;;;;;;5064183;28;20040;-80
2022/01/11 03:10:48;;;;;;;16.77;15.98;;;9.10;84.60;;;;;;5102960;28;20048;-80
2022/01/11 03:13:16;;;;;;;17.70;16.80;;;9.10;84.60;;;;;;5073066;28;20025;-80
2022/01/11 03:15:43;;;;;;;17.60;16.63;;;9.10;84.50;;;;;;5080655;28;20500;-80
2022/01/11 03:18:09;;;;;;;17.85;16.88;;;9.10;84.50;;;;;;5065534;28;20414;-80
2022/01/11 03:20:35;;;;;;;17.20;16.30;;;9.10;84.50;;;;;;5054259;28;20051;-80
2022/01/11 03:23:02;;;;;;;15.98;15.18;;;9.00;84.50;;;;;;5101554;28;20040;-80
2022/01/11 03:25:28;;;;;;;16.13;15.32;;;9.00;84.50;;;;;;5064958;28;20498;-80
2022/01/11 03:27:55;;;;;;;16.23;15.40;;;9.00;84.50;;;;;;5057257;28;20029;-80
2022/01/11 03:30:21;;;;;;;17.33;16.42;;;9.00;84.60;;;;;;5088470;28;20028;-79
2022/01/11 03:32:47;;;;;;;16.80;16.00;;;9.00;84.60;;;;;;5088791;28;20040;-79
2022/01/11 03:35:13;;;;;;;16.40;15.65;;;8.90;84.60;;;;;;5051234;28;20032;-79
2022/01/11 03:37:39;;;;;;;18.83;17.63;;;8.90;84.60;;;;;;5090054;28;20051;-80
2022/01/11 03:40:08;;;;;;;17.45;16.65;;;8.90;84.60;;;;;;5067583;28;20055;-80
2022/01/11 03:42:34;;;;;;;15.98;15.25;;;8.90;84.60;;;;;;5099508;28;20381;-79
2022/01/11 03:45:00;;;;;;;16.80;16.00;;;8.90;84.60;;;;;;5086692;28;20040;-80
2022/01/11 03:47:26;;;;;;;16.88;16.08;;;8.90;84.60;;;;;;5069943;28;20028;-80
2022/01/11 03:49:52;;;;;;;16.73;15.93;;;8.90;84.60;;;;;;5071940;28;20036;-80
2022/01/11 03:52:19;;;;;;;16.77;15.98;;;8.90;84.70;;;;;;5104509;28;20045;-80
2022/01/11 03:55:04;;;;;;;17.05;16.15;;;8.80;84.70;;;;;;5071566;28;20067;-80
2022/01/11 03:57:31;;;;;;;16.10;15.30;;;8.80;84.60;;;;;;5071422;28;20450;-81
2022/01/11 03:59:58;;;;;;;16.23;15.23;;;8.80;84.70;;;;;;5036694;28;20044;-81
2022/01/11 04:02:24;;;;;;;17.27;16.27;;;8.80;84.70;;;;;;5070097;28;20036;-81
2022/01/11 04:04:53;;;;;;;16.73;15.93;;;8.80;84.70;;;;;;5048988;28;20477;-82
2022/01/11 04:07:24;;;;;;;15.60;14.88;;;8.80;84.70;;;;;;5069539;28;20028;-79
2022/01/11 04:09:50;;;;;;;16.65;15.85;;;8.70;84.60;;;;;;5068367;28;20036;-80
2022/01/11 04:12:17;;;;;;;16.10;15.40;;;8.70;84.60;;;;;;5052758;28;20040;-80
2022/01/11 04:14:43;;;;;;;15.98;15.25;;;8.70;84.60;;;;;;5068116;28;20368;-80
2022/01/11 04:17:09;;;;;;;16.10;15.30;;;8.70;84.70;;;;;;5052714;28;20529;-81
2022/01/11 04:19:35;;;;;;;16.90;16.10;;;8.70;84.70;;;;;;5072837;28;20505;-80
2022/01/11 04:22:02;;;;;;;16.30;15.57;;;8.70;84.60;;;;;;5069568;28;20037;-80
2022/01/11 04:24:28;;;;;;;17.25;16.15;;;8.60;84.70;;;;;;5103094;28;20036;-80
2022/01/11 04:26:54;;;;;;;16.42;15.63;;;8.60;84.80;;;;;;5069160;28;20037;-80
2022/01/11 04:29:20;;;;;;;16.20;15.40;;;8.60;84.80;;;;;;5052772;28;20478;-80
2022/01/11 04:31:46;;;;;;;16.42;15.63;;;8.60;84.80;;;;;;5070800;28;20048;-80
2022/01/11 04:34:12;;;;;;;16.55;15.75;;;8.50;84.80;;;;;;5069449;28;20028;-80
2022/01/11 04:36:38;;;;;;;15.93;15.23;;;8.50;84.80;;;;;;5051760;28;20025;-80
2022/01/11 04:39:06;;;;;;;16.90;16.10;;;8.50;84.90;;;;;;5067413;28;20404;-80
2022/01/11 04:41:33;;;;;;;15.95;15.25;;;8.40;84.90;;;;;;5070054;28;20025;-80
2022/01/11 04:43:59;;;;;;;15.65;14.95;;;8.40;84.90;;;;;;5036118;28;20504;-80
2022/01/11 04:46:26;;;;;;;16.02;15.32;;;8.40;85.00;;;;;;5069189;28;20036;-81
2022/01/11 04:48:52;;;;;;;16.20;15.40;;;8.40;84.90;;;;;;5068464;28;20032;-81
2022/01/11 04:51:20;;;;;;;17.05;16.13;;;8.30;84.90;;;;;;5068989;28;20040;-81
2022/01/11 04:53:47;;;;;;;16.75;15.88;;;8.30;85.00;;;;;;5068440;28;20238;-81
2022/01/11 04:56:13;;;;;;;17.67;16.42;;;8.30;85.00;;;;;;5068959;28;20029;-82
2022/01/11 04:58:39;;;;;;;17.42;16.42;;;8.20;85.00;;;;;;5087519;28;20028;-82
2022/01/11 05:01:05;;;;;;;16.27;15.48;;;8.20;84.90;;;;;;5083609;28;20508;-82
2022/01/11 05:03:31;;;;;;;15.80;15.10;;;8.20;84.90;;;;;;5085450;28;20107;-82
2022/01/11 05:05:58;;;;;;;16.50;15.70;;;8.10;84.90;;;;;;5084074;28;20025;-82
2022/01/11 05:08:24;;;;;;;16.17;15.48;;;8.10;85.00;;;;;;5052167;28;20032;-81
2022/01/11 05:10:50;;;;;;;16.17;15.48;;;8.10;85.00;;;;;;5053273;28;20366;-82
2022/01/11 05:13:17;;;;;;;16.00;15.30;;;8.00;84.90;;;;;;5093045;28;20493;-81
2022/01/11 05:15:43;;;;;;;16.30;15.52;;;8.00;85.00;;;;;;5079316;28;20036;-79
2022/01/11 05:18:10;;;;;;;16.60;15.80;;;8.00;85.10;;;;;;5083623;28;20492;-79
2022/01/11 05:20:36;;;;;;;16.00;15.27;;;7.90;85.10;;;;;;5068463;28;20032;-78
2022/01/11 05:23:02;;;;;;;16.60;15.80;;;7.90;85.10;;;;;;5052046;28;20043;-79
2022/01/11 05:25:28;;;;;;;16.80;15.70;;;7.90;85.10;;;;;;5082362;28;20049;-79
2022/01/11 05:27:54;;;;;;;16.10;15.30;;;7.90;85.20;;;;;;5068803;28;20036;-79
2022/01/11 05:30:21;;;;;;;15.70;15.00;;;7.90;85.20;;;;;;5068527;28;20032;-78
2022/01/11 05:32:48;;;;;;;16.10;15.30;;;7.80;85.00;;;;;;5067162;28;20044;-78
2022/01/11 05:35:14;;;;;;;15.07;14.38;;;7.80;85.00;;;;;;5052198;28;20037;-78
2022/01/11 05:37:41;;;;;;;15.65;14.95;;;7.80;85.10;;;;;;5104313;28;20393;-80
2022/01/11 05:40:08;;;;;;;15.85;15.15;;;7.80;85.10;;;;;;5083052;28;20035;-80
2022/01/11 05:42:34;;;;;;;15.98;15.18;;;7.80;85.10;;;;;;5069526;28;20040;-80
2022/01/11 05:45:00;;;;;;;17.50;16.47;;;7.80;85.10;;;;;;5067666;28;20047;-78
2022/01/11 05:47:26;;;;;;;16.20;15.40;;;7.80;85.00;;;;;;5084183;28;20037;-78
2022/01/11 05:49:52;;;;;;;15.57;14.88;;;7.80;85.00;;;;;;5053472;28;20055;-79
2022/01/11 05:52:18;;;;;;;15.60;14.80;;;7.80;85.00;;;;;;5109778;28;20469;-79
2022/01/11 05:54:44;;;;;;;17.85;16.17;;;7.70;84.90;;;;;;5073034;28;20031;-79
2022/01/11 05:57:10;;;;;;;16.17;15.23;;;7.70;84.90;;;;;;5069295;28;20485;-80
2022/01/11 05:59:36;;;;;;;15.97;15.17;;;7.70;85.00;;;;;;5051991;28;20033;-79
2022/01/11 06:02:03;;;;;;;15.63;14.93;;;7.70;85.00;;;;;;5069369;28;20044;-79
2022/01/11 06:04:29;;;;;;;16.93;16.13;;;7.60;85.00;;;;;;5104007;28;20446;-79
2022/01/11 06:06:55;;;;;;;16.10;15.30;;;7.60;85.00;;;;;;5087184;28;20028;-78
2022/01/11 06:09:26;;;;;;;15.83;15.03;;;7.60;85.00;;;;;;5073252;28;20028;-79
2022/01/11 06:11:53;;;;;;;16.58;15.77;;;7.60;85.10;;;;;;5070018;28;20491;-81
2022/01/11 06:14:19;;;;;;;15.60;14.88;;;7.60;85.10;;;;;;5053905;28;20025;-81
2022/01/11 06:16:46;;;;;;;15.17;14.47;;;7.50;85.10;;;;;;5072743;28;20048;-81
2022/01/11 06:19:12;;;;;;;16.37;15.37;;;7.60;85.10;;;;;;5071610;28;20029;-80
2022/01/11 06:21:38;;;;;;;16.20;15.40;;;7.50;85.20;;;;;;5072629;28;20393;-82
2022/01/11 06:24:04;;;;;;;15.95;15.25;;;7.50;85.20;;;;;;5047211;28;20032;-82
2022/01/11 06:26:30;;;;;;;15.67;14.90;;;7.50;85.10;;;;;;5086572;28;20028;-82
2022/01/11 06:28:57;;;;;;;16.30;15.50;;;7.50;85.00;;;;;;5043957;28;20047;-81
2022/01/11 06:31:23;;;;;;;16.02;15.18;;;7.50;85.20;;;;;;5074960;28;20040;-81
2022/01/11 06:33:49;;;;;;;15.67;14.87;;;7.40;85.10;;;;;;5092383;28;20033;-79
2022/01/11 06:36:15;;;;;;;16.30;14.93;;;7.50;85.20;;;;;;5060106;28;20025;-78
2022/01/11 06:38:42;;;;;;;15.70;15.00;;;7.40;85.10;;;;;;5066464;28;20397;-79
2022/01/11 06:41:09;;;;;;;16.00;15.30;;;7.40;85.10;;;;;;5094375;28;20400;-79
2022/01/11 06:43:36;;;;;;;15.40;14.70;;;7.40;85.10;;;;;;5058329;28;20032;-80
2022/01/11 06:46:02;;;;;;;18.63;17.13;;;7.40;85.10;;;;;;5059533;28;20040;-80
2022/01/11 06:48:28;;;;;;;16.38;15.57;;;7.40;85.10;;;;;;5092349;28;20041;-79
2022/01/11 06:50:55;;;;;;;16.17;15.27;;;7.30;85.00;;;;;;5090426;28;20033;-80
2022/01/11 06:53:21;;;;;;;16.40;15.60;;;7.30;85.00;;;;;;5064659;28;20041;-81
2022/01/11 06:55:47;;;;;;;15.93;15.13;;;7.30;85.00;;;;;;5071519;28;20489;-80
2022/01/11 06:58:13;;;;;;;17.00;16.10;;;7.30;85.00;;;;;;5095543;28;20040;-80
2022/01/11 07:00:39;;;;;;;16.30;15.50;;;7.30;85.10;;;;;;5097435;28;20040;-80
2022/01/11 07:03:05;;;;;;;16.10;15.30;;;7.30;85.10;;;;;;5067261;28;20028;-80
2022/01/11 07:05:32;;;;;;;16.23;15.40;;;7.20;85.10;;;;;;5058817;28;20043;-81
2022/01/11 07:07:58;;;;;;;16.47;15.63;;;7.20;85.10;;;;;;5048905;28;20049;-80
2022/01/11 07:10:24;;;;;;;16.70;15.80;;;7.20;85.10;;;;;;5067877;28;20032;-81
2022/01/11 07:12:50;;;;;;;16.50;15.57;;;7.20;85.10;;;;;;5098670;28;20442;-81
2022/01/11 07:15:16;;;;;;;15.87;15.17;;;7.20;85.20;;;;;;5068459;28;20025;-81
2022/01/11 07:17:42;;;;;;;15.23;14.37;;;7.20;85.20;;;;;;5099814;28;20052;-81
2022/01/11 07:20:09;;;;;;;15.57;14.87;;;7.20;85.20;;;;;;5068162;28;20041;-81
2022/01/11 07:22:37;;;;;;;17.00;15.33;;;7.20;85.20;;;;;;5093206;28;20461;-81
2022/01/11 07:25:05;;;;;;;16.00;15.23;;;7.20;85.10;;;;;;5094678;28;20883;-81
2022/01/11 07:27:33;;;;;;;16.50;15.60;;;7.20;85.10;;;;;;5098522;28;20037;-81
2022/01/11 07:30:01;;;;;;;15.93;15.13;;;7.20;85.10;;;;;;5095027;28;20021;-79
2022/01/11 07:32:27;;;;;;;15.03;14.33;;;7.10;85.00;;;;;;5070763;28;20045;-79
2022/01/11 07:34:53;;;;;;;15.50;14.80;;;7.10;84.90;;;;;;5072640;28;20073;-80
2022/01/11 07:37:19;;;;;;;15.40;14.70;;;7.10;84.90;;;;;;5065966;28;20033;-81
2022/01/11 07:39:45;;;;;;;15.07;14.37;;;7.00;84.90;;;;;;5071322;28;20032;-80
2022/01/11 07:42:11;;;;;;;14.97;14.27;;;7.00;85.00;;;;;;5068289;28;20033;-79
2022/01/11 07:44:37;;;;;;;15.20;14.50;;;7.00;85.00;;;;;;5093796;28;20043;-80
2022/01/11 07:47:04;;;;;;;16.03;15.23;;;7.00;85.10;;;;;;5077515;28;20033;-79
2022/01/11 07:49:30;;;;;;;15.57;14.87;;;6.90;85.10;;;;;;5071561;28;20035;-80
2022/01/11 07:51:56;;;;;;;15.90;15.20;;;6.90;85.00;;;;;;5062817;28;20033;-80
2022/01/11 07:54:22;;;;;;;17.27;16.37;;;7.00;85.00;;;;;;5080136;28;20044;-79
2022/01/11 07:56:49;;;;;;;16.70;15.90;;;6.90;85.00;;;;;;5049940;28;20041;-79
2022/01/11 07:59:15;;;;;;;16.57;15.77;;;6.90;85.10;;;;;;5087515;28;20037;-79
2022/01/11 08:01:41;;;;;;;17.03;15.83;;;6.90;85.10;;;;;;5071595;28;20024;-78
2022/01/11 08:04:07;;;;;;;15.77;15.03;;;6.90;85.20;;;;;;5059334;28;20037;-78
2022/01/11 08:06:33;;;;;;;19.83;15.40;;;6.90;85.20;;;;;;5058096;28;20029;-78
2022/01/11 08:09:00;;;;;;;15.23;14.53;;;6.90;85.80;;;;;;5098164;28;20037;-78
2022/01/11 08:11:26;;;;;;;14.67;13.97;;;6.90;85.10;;;;;;5057529;28;20028;-79
2022/01/11 08:13:52;;;;;;;16.60;15.80;;;6.90;84.90;;;;;;5088579;28;20041;-79
2022/01/11 08:16:19;;;;;;;15.70;15.00;;;6.90;84.90;;;;;;5066221;28;20036;-79
2022/01/11 08:18:45;;;;;;;16.00;15.23;;;6.90;84.90;;;;;;5077862;28;20044;-79
2022/01/11 08:21:11;;;;;;;15.93;15.23;;;6.90;84.90;;;;;;5062912;28;20036;-79
2022/01/11 08:23:38;;;;;;;17.20;16.07;;;6.90;84.80;;;;;;5068070;28;20094;-77
2022/01/11 08:26:05;;;;;;;14.87;14.17;;;6.80;84.90;;;;;;5069233;28;20704;-78
2022/01/11 08:28:32;;;;;;;15.67;14.87;;;6.90;85.00;;;;;;5055663;28;20029;-78
2022/01/11 08:30:58;;;;;;;16.07;14.97;;;6.90;85.10;;;;;;5091402;28;20044;-78
2022/01/11 08:33:24;;;;;;;15.73;15.03;;;6.90;85.00;;;;;;5044553;28;20535;-78
2022/01/11 08:35:51;;;;;;;15.57;14.73;;;7.00;84.80;;;;;;5080776;28;20036;-78
2022/01/11 08:38:17;;;;;;;15.90;15.10;;;7.00;84.70;;;;;;5069585;28;20032;-78
2022/01/11 08:40:44;;;;;;;16.57;15.47;;;7.00;84.70;;;;;;5063208;28;20048;-79
2022/01/11 08:43:10;;;;;;;15.20;14.50;;;7.00;84.70;;;;;;5065058;28;20041;-79
2022/01/11 08:45:36;;;;;;;15.37;14.67;;;7.00;84.70;;;;;;5081064;28;20036;-79
2022/01/11 08:48:02;;;;;;;14.90;14.20;;;7.00;84.70;;;;;;5100316;28;20040;-82
2022/01/11 08:50:28;;;;;;;15.40;14.70;;;7.00;84.80;;;;;;5069324;28;20405;-82
2022/01/11 08:52:55;;;;;;;16.20;15.37;;;7.20;85.00;;;;;;5049318;28;20071;-83
2022/01/11 08:55:21;;;;;;;15.93;15.23;;;7.40;84.90;;;;;;5086620;28;20044;-82
2022/01/11 08:57:47;;;;;;;17.30;16.40;;;7.50;84.60;;;;;;5046875;28;20044;-82
2022/01/11 09:00:17;;;;;;;15.73;15.03;;;7.60;84.40;;;;;;5066092;28;20033;-82
2022/01/11 09:02:46;;;;;;;15.70;15.00;;;7.60;84.20;;;;;;5057816;28;20043;-82
2022/01/11 09:05:13;;;;;;;15.60;14.90;;;7.70;84.40;;;;;;5069832;28;20028;-82
2022/01/11 09:07:39;;;;;;;15.77;15.07;;;7.80;84.50;;;;;;5070748;28;20048;-81
2022/01/11 09:10:05;;;;;;;16.37;15.57;;;7.90;84.20;;;;;;5069295;28;20025;-81
2022/01/11 09:12:32;;;;;;;16.33;15.57;;;8.10;84.30;;;;;;5068874;28;20028;-81
2022/01/11 09:14:58;;;;;;;16.87;16.00;;;8.10;83.90;;;;;;5052633;28;20036;-81
2022/01/11 09:17:24;;;;;;;17.87;16.77;;;8.10;84.10;;;;;;5068582;28;20044;-81
2022/01/11 09:19:50;;;;;;;17.57;16.67;;;8.20;84.10;;;;;;5071164;28;20036;-81
2022/01/11 09:22:16;;;;;;;17.27;16.48;;;8.30;83.90;;;;;;5070190;28;20036;-79
2022/01/11 09:24:43;;;;;;;17.15;16.35;;;8.30;83.80;;;;;;5068846;28;20035;-79
2022/01/11 09:27:09;;;;;;;17.20;16.40;;;8.40;83.80;;;;;;5067363;28;20048;-79
2022/01/11 09:29:37;;;;;;;16.65;15.85;;;8.50;83.80;;;;;;5052039;28;20041;-78
2022/01/11 09:32:04;;;;;;;16.97;16.17;;;8.50;83.60;;;;;;5052357;28;20397;-78
2022/01/11 09:34:30;;;;;;;17.17;16.38;;;8.60;83.70;;;;;;5068194;28;20496;-84
2022/01/11 09:36:56;;;;;;;16.33;15.60;;;8.70;83.60;;;;;;5068896;28;20033;-83
2022/01/11 09:39:23;;;;;;;16.73;15.93;;;8.70;83.30;;;;;;5068779;28;20029;-80
2022/01/11 09:41:49;;;;;;;17.25;16.45;;;8.70;83.30;;;;;;5072591;28;20021;-79
2022/01/11 09:44:16;;;;;;;16.10;15.40;;;8.70;83.30;;;;;;5056359;28;20029;-79
2022/01/11 09:46:42;;;;;;;16.55;15.75;;;8.60;83.20;;;;;;5090094;28;20044;-83
2022/01/11 09:49:08;;;;;;;16.67;15.77;;;8.60;83.30;;;;;;5073222;28;20040;-83
2022/01/11 09:51:36;;;;;;;17.33;16.52;;;8.70;83.50;;;;;;5055750;28;20032;-81
2022/01/11 09:54:03;;;;;;;17.52;16.70;;;8.70;83.20;;;;;;5072745;28;20059;-86
2022/01/11 09:56:29;;;;;;;16.98;16.17;;;8.70;83.00;;;;;;5072542;28;20050;-78
2022/01/11 09:58:56;;;;;;;17.95;17.08;;;8.60;82.90;;;;;;5072345;28;20396;-78
2022/01/11 10:01:22;;;;;;;16.95;16.15;;;8.50;83.10;;;;;;5072689;28;20040;-78
2022/01/11 10:04:01;;;;;;;21.83;17.15;;;8.50;83.40;;;;;;5072339;28;20048;-78
2022/01/11 10:06:27;;;;;;;17.00;16.20;;;8.50;83.40;;;;;;5071066;28;20033;-78
2022/01/11 10:09:13;;;;;;;18.08;17.20;;;8.50;83.40;;;;;;5055917;28;20044;-78
2022/01/11 10:11:41;;;;;;;17.27;16.48;;;8.60;83.40;;;;;;5070971;28;20025;-78
2022/01/11 10:14:22;;;;;;;17.13;16.33;;;8.70;83.10;;;;;;5038480;28;20060;-78
2022/01/11 10:16:49;;;;;;;17.30;16.40;;;8.80;82.70;;;;;;5102367;28;20067;-81
2022/01/11 10:19:26;;;;;;;17.02;16.23;;;8.80;82.60;;;;;;5073253;28;20028;-83
2022/01/11 10:21:54;;;;;;;17.17;16.27;;;8.80;82.60;;;;;;5068909;28;20024;-85
2022/01/11 10:24:25;;;;;;;16.63;15.82;;;8.90;82.70;;;;;;5072139;28;20021;-84
2022/01/11 10:26:53;;;;;;;17.75;16.95;;;9.10;82.60;;;;;;5071970;28;20024;-85
2022/01/11 10:29:28;;;;;;;18.05;17.02;;;9.30;82.60;;;;;;5073010;28;20017;-84
2022/01/11 10:31:55;;;;;;;17.20;16.40;;;9.40;82.40;;;;;;5072554;28;20040;-84
2022/01/11 10:34:34;;;;;;;18.13;17.23;;;9.60;82.20;;;;;;5073716;28;20048;-84
2022/01/11 10:37:01;;;;;;;17.45;16.45;;;9.70;82.20;;;;;;5068221;28;20028;-83
2022/01/11 10:39:32;;;;;;;18.23;17.42;;;9.80;82.30;;;;;;5074773;28;20020;-84
2022/01/11 10:41:58;;;;;;;17.65;16.85;;;9.90;82.30;;;;;;5082573;28;20032;-83
2022/01/11 10:44:52;;;;;;;18.33;17.42;;;10.00;82.30;;;;;;5103432;27;20039;-86
2022/01/11 10:47:22;;;;;;;18.63;17.75;;;10.10;82.20;;;;;;5101157;28;20040;-86
2022/01/11 10:49:53;;;;;;;18.85;17.95;;;10.20;82.20;;;;;;5080081;28;20033;-87
2022/01/11 10:52:21;;;;;;;19.85;18.85;;;10.20;82.20;;;;;;5084786;28;20025;-87
2022/01/11 10:54:48;;;;;;;19.75;18.83;;;10.30;82.30;;;;;;5060654;28;20033;-86
2022/01/11 10:57:23;;;;;;;18.67;17.70;;;10.50;82.20;;;;;;5055751;28;20036;-88
2022/01/11 11:00:22;;;;;;;19.45;18.38;;;10.80;81.50;;;;;;5066813;28;20024;-82
2022/01/11 11:02:51;;;;;;;19.90;19.00;;;11.10;80.70;;;;;;5070615;28;20025;-86
2022/01/11 11:05:25;;;;;;;20.42;19.42;;;11.30;80.10;;;;;;5071510;28;20592;-83
2022/01/11 11:08:05;;;;;;;20.02;19.08;;;11.30;80.00;;;;;;5083047;28;20035;-84
2022/01/11 11:10:35;;;;;;;20.33;19.42;;;11.40;80.10;;;;;;5099707;28;20028;-85
2022/01/11 11:13:01;;;;;;;20.13;19.23;;;11.30;80.00;;;;;;5067418;28;20045;-83
2022/01/11 11:15:29;;;;;;;20.38;19.48;;;11.10;79.80;;;;;;5066581;28;20032;-84
2022/01/11 11:17:55;;;;;;;19.98;19.08;;;10.90;80.30;;;;;;5083828;28;20040;-84
2022/01/11 11:20:21;;;;;;;19.67;18.77;;;10.70;80.50;;;;;;5069500;28;20024;-85
2022/01/11 11:22:47;;;;;;;19.27;18.38;;;10.60;81.10;;;;;;5056042;28;20018;-84
2022/01/11 11:25:13;;;;;;;19.80;18.90;;;10.60;81.40;;;;;;5052713;28;20036;-82
2022/01/11 11:27:39;;;;;;;20.60;19.60;;;10.70;81.30;;;;;;5072004;28;20024;-84
2022/01/11 11:30:06;;;;;;;20.70;19.70;;;10.80;81.20;;;;;;5068511;28;20036;-82
2022/01/11 11:32:33;;;;;;;20.10;19.20;;;10.80;80.80;;;;;;5054189;28;20040;-83
2022/01/11 11:34:59;;;;;;;20.48;19.50;;;10.70;80.90;;;;;;5038042;28;20052;-83
2022/01/11 11:37:33;;;;;;;20.75;19.75;;;10.80;80.90;;;;;;5072443;28;20028;-82
2022/01/11 11:40:01;;;;;;;20.73;19.80;;;10.80;80.80;;;;;;5053007;28;20038;-82
2022/01/11 11:42:27;;;;;;;20.90;19.48;;;10.70;80.60;;;;;;5051947;28;20013;-80
2022/01/11 11:44:53;;;;;;;20.73;19.73;;;10.70;80.60;;;;;;5062650;28;20044;-79
2022/01/11 11:47:38;;;;;;;20.42;19.42;;;10.80;80.80;;;;;;5085086;28;20028;-79
2022/01/11 11:50:05;;;;;;;20.52;19.52;;;10.90;80.30;;;;;;5076655;28;20028;-80
2022/01/11 11:52:38;;;;;;;22.38;20.88;;;11.10;80.00;;;;;;5060927;28;20103;-81
2022/01/11 11:55:20;;;;;;;21.95;20.95;;;11.40;79.50;;;;;;5072900;28;20501;-81
2022/01/11 11:57:49;;;;;;;19.85;18.95;;;11.50;79.20;;;;;;5064794;28;20033;-81
2022/01/11 12:00:25;;;;;;;21.17;20.17;;;11.70;79.50;;;;;;5081391;28;20450;-80
2022/01/11 12:02:56;;;;;;;21.27;20.27;;;11.70;78.20;;;;;;5068977;28;20393;-80
2022/01/11 12:05:38;;;;;;;1340.40;673.40;;;11.80;78.20;;;;;;5087264;28;20025;-80
2022/01/11 12:08:25;;;;;;;516.13;265.38;;;12.00;78.10;;;;;;5052029;28;20028;-81
2022/01/11 12:10:53;;;;;;;1999.90;999.90;;;12.10;77.60;;;;;;5067750;28;20473;-81
2022/01/11 12:13:48;;;;;;;515.97;265.20;;;12.20;77.40;;;;;;5098196;28;20036;-80
2022/01/11 12:16:39;;;;;;;516.78;266.02;;;12.20;77.10;;;;;;5057718;28;20644;-80
2022/01/11 12:19:54;;;;;;;22.65;21.65;;;12.10;76.60;;;;;;5066945;28;20055;-81
2022/01/11 12:22:28;;;;;;;21.55;20.55;;;11.90;76.40;;;;;;5057314;28;20040;-82
2022/01/11 12:24:56;;;;;;;21.60;20.60;;;11.70;76.50;;;;;;5069131;28;20028;-82
2022/01/11 12:27:23;;;;;;;517.00;266.25;;;11.70;76.60;;;;;;5069621;28;20023;-81
2022/01/11 12:30:05;;;;;;;515.22;264.55;;;11.80;76.30;;;;;;5052492;28;20024;-81
2022/01/11 12:32:35;;;;;;;1999.90;999.90;;;11.80;76.10;;;;;;5066411;28;20036;-81
2022/01/11 12:35:04;;;;;;;1999.90;999.90;;;11.80;76.30;;;;;;5069585;28;20047;-82
2022/01/11 12:37:38;;;;;;;1999.90;999.90;;;12.00;75.90;;;;;;5070165;28;20035;-82
2022/01/11 12:40:15;;;;;;;1999.90;999.90;;;12.10;76.50;;;;;;5070340;28;20033;-81
2022/01/11 12:42:55;;;;;;;1999.90;999.90;;;12.20;75.60;;;;;;5068182;28;20024;-81